Time;durP1;ratioP1;P1;durP2;ratioP2;P2;SDS_P1;SDS_P2;PMS_P1;PMS_P2;Temp;Humidity;BMP_temperature;BMP_pressure;BME280_temperature;BME280_humidity;BME280_pressure;Samples;Min_cycle;Max_cycle;Signal;HPM_P1;HPM_P2
2021/08/21 00:00:19;;;;;;;4.57;4.10;;;14.10;99.90;;;;;;483784;246;28385;-70
2021/08/21 00:02:20;;;;;;;4.60;4.20;;;14.10;99.90;;;;;;483823;246;28410;-70
2021/08/21 00:04:21;;;;;;;4.33;3.93;;;14.10;99.90;;;;;;483810;246;28362;-72
2021/08/21 00:06:23;;;;;;;7.10;4.30;;;14.10;99.90;;;;;;483828;246;28770;-70
2021/08/21 00:08:24;;;;;;;4.43;4.03;;;14.10;99.90;;;;;;483865;246;28241;-70
2021/08/21 00:10:26;;;;;;;3.80;3.50;;;14.10;99.90;;;;;;483846;246;28177;-70
2021/08/21 00:12:26;;;;;;;4.63;4.23;;;14.10;99.90;;;;;;483811;246;28542;-70
2021/08/21 00:14:28;;;;;;;4.50;4.10;;;14.10;99.90;;;;;;483866;246;28169;-69
2021/08/21 00:16:29;;;;;;;3.90;3.53;;;14.10;99.90;;;;;;483858;246;28914;-71
2021/08/21 00:18:31;;;;;;;8.23;4.23;;;14.10;99.90;;;;;;483862;246;28656;-70
2021/08/21 00:20:31;;;;;;;3.93;3.53;;;14.00;99.90;;;;;;483849;246;28572;-72
2021/08/21 00:22:33;;;;;;;3.90;3.60;;;14.00;99.90;;;;;;483892;246;28787;-72
2021/08/21 00:24:34;;;;;;;4.50;3.77;;;14.00;99.90;;;;;;483874;246;28244;-70
2021/08/21 00:26:35;;;;;;;3.90;3.50;;;14.00;99.90;;;;;;483876;246;28276;-70
2021/08/21 00:28:36;;;;;;;3.70;3.40;;;14.00;99.90;;;;;;483847;246;28486;-70
2021/08/21 00:30:38;;;;;;;3.77;3.47;;;14.00;99.90;;;;;;483836;246;28092;-70
2021/08/21 00:32:39;;;;;;;3.47;3.10;;;14.00;99.90;;;;;;483864;246;28420;-70
2021/08/21 00:34:40;;;;;;;4.03;3.50;;;14.00;99.90;;;;;;483836;246;28068;-71
2021/08/21 00:36:41;;;;;;;3.73;3.43;;;13.90;99.90;;;;;;483839;246;28087;-70
2021/08/21 00:38:43;;;;;;;3.70;3.40;;;13.90;99.90;;;;;;483830;246;28415;-70
2021/08/21 00:40:44;;;;;;;3.23;2.97;;;13.90;99.90;;;;;;483812;246;28914;-70
2021/08/21 00:42:45;;;;;;;3.50;3.20;;;13.90;99.90;;;;;;483855;246;28816;-70
2021/08/21 00:44:48;;;;;;;3.47;3.17;;;;;;;;;;483865;246;28707;-70
2021/08/21 00:46:49;;;;;;;3.37;3.10;;;13.90;99.90;;;;;;483864;246;26373;-70
2021/08/21 00:48:50;;;;;;;2.93;2.73;;;13.90;99.90;;;;;;483844;246;28090;-69
2021/08/21 00:50:51;;;;;;;3.27;3.03;;;13.90;99.90;;;;;;483871;246;28118;-70
2021/08/21 00:52:53;;;;;;;3.30;3.03;;;13.90;99.90;;;;;;483866;246;28290;-70
2021/08/21 00:54:54;;;;;;;3.00;2.80;;;13.80;99.90;;;;;;483865;246;28894;-70
2021/08/21 00:56:55;;;;;;;3.57;3.27;;;13.80;99.90;;;;;;483852;246;28752;-70
2021/08/21 00:58:56;;;;;;;3.17;2.97;;;13.80;99.90;;;;;;483861;246;28562;-70
2021/08/21 01:00:58;;;;;;;3.30;3.00;;;13.70;99.90;;;;;;483874;246;28816;-69
2021/08/21 01:02:59;;;;;;;3.40;3.10;;;13.70;99.90;;;;;;483858;246;28157;-69
2021/08/21 01:05:00;;;;;;;3.30;3.00;;;13.70;99.90;;;;;;483818;246;28284;-70
2021/08/21 01:07:01;;;;;;;2.53;2.37;;;13.70;99.90;;;;;;483858;246;28048;-70
2021/08/21 01:09:03;;;;;;;3.40;3.10;;;13.70;99.90;;;;;;483864;246;28296;-69
2021/08/21 01:11:04;;;;;;;3.60;3.30;;;13.70;99.90;;;;;;483867;246;28202;-69
2021/08/21 01:13:05;;;;;;;3.87;2.90;;;13.60;99.90;;;;;;483876;246;28139;-70
2021/08/21 01:15:06;;;;;;;3.07;2.87;;;13.60;99.90;;;;;;483872;246;28125;-71
2021/08/21 01:17:08;;;;;;;3.67;2.93;;;13.60;99.90;;;;;;483848;246;28248;-70
2021/08/21 01:19:09;;;;;;;3.37;3.07;;;13.60;99.90;;;;;;483870;246;28610;-70
2021/08/21 01:21:10;;;;;;;5.50;3.30;;;13.60;99.90;;;;;;483871;246;28680;-70
2021/08/21 01:23:11;;;;;;;3.53;3.23;;;13.60;99.90;;;;;;483856;246;28607;-70
2021/08/21 01:25:13;;;;;;;2.93;2.73;;;13.60;99.90;;;;;;483826;246;28638;-70
2021/08/21 01:27:14;;;;;;;2.90;2.70;;;13.60;99.90;;;;;;483834;246;28079;-70
2021/08/21 01:29:15;;;;;;;3.07;2.80;;;13.60;99.90;;;;;;483865;246;28122;-70
2021/08/21 01:31:16;;;;;;;3.00;2.70;;;13.60;99.90;;;;;;483879;246;28194;-70
2021/08/21 01:33:18;;;;;;;2.73;2.53;;;13.60;99.90;;;;;;483868;246;28131;-70
2021/08/21 01:35:19;;;;;;;3.07;2.87;;;13.60;99.90;;;;;;483866;246;28176;-70
2021/08/21 01:37:20;;;;;;;3.03;2.73;;;13.60;99.90;;;;;;483872;246;28122;-70
2021/08/21 01:39:22;;;;;;;2.77;2.57;;;13.60;99.90;;;;;;483872;246;28704;-70
2021/08/21 01:41:23;;;;;;;2.83;2.63;;;13.60;99.90;;;;;;483867;246;28666;-70
2021/08/21 01:43:24;;;;;;;2.70;2.50;;;13.60;99.90;;;;;;483902;246;29116;-70
2021/08/21 01:45:25;;;;;;;2.63;2.43;;;13.60;99.90;;;;;;483886;246;28139;-70
2021/08/21 01:47:27;;;;;;;3.00;2.80;;;13.60;99.90;;;;;;483863;246;28162;-70
2021/08/21 01:49:28;;;;;;;2.43;2.23;;;13.60;99.90;;;;;;483834;246;28054;-70
2021/08/21 01:51:29;;;;;;;4.03;2.57;;;13.50;99.90;;;;;;483869;246;28074;-70
2021/08/21 01:53:30;;;;;;;2.50;2.40;;;13.50;99.90;;;;;;483866;246;28174;-70
2021/08/21 01:55:32;;;;;;;2.50;2.40;;;13.60;99.90;;;;;;483861;246;28764;-70
2021/08/21 01:57:33;;;;;;;2.40;2.30;;;13.60;99.90;;;;;;483872;246;28217;-70
2021/08/21 01:59:34;;;;;;;2.40;2.30;;;13.60;99.90;;;;;;483886;246;28158;-70
2021/08/21 02:01:35;;;;;;;2.70;2.50;;;13.60;99.90;;;;;;483895;246;28563;-70
2021/08/21 02:03:37;;;;;;;2.70;2.50;;;13.50;99.90;;;;;;483858;246;29258;-70
2021/08/21 02:05:38;;;;;;;2.37;2.17;;;13.40;99.90;;;;;;483895;246;28647;-70
2021/08/21 02:07:39;;;;;;;2.87;2.67;;;13.40;99.90;;;;;;483907;246;28671;-70
2021/08/21 02:09:41;;;;;;;2.73;2.53;;;13.30;99.90;;;;;;483741;246;28167;-70
2021/08/21 02:11:42;;;;;;;3.40;2.50;;;13.20;99.90;;;;;;483847;246;28227;-70
2021/08/21 02:13:43;;;;;;;2.80;2.60;;;13.20;99.90;;;;;;483884;246;28213;-70
2021/08/21 02:15:44;;;;;;;2.80;2.60;;;13.30;99.90;;;;;;483873;246;28087;-70
2021/08/21 02:17:46;;;;;;;2.40;2.30;;;13.30;99.90;;;;;;483880;246;28099;-70
2021/08/21 02:19:47;;;;;;;2.17;2.07;;;13.30;99.90;;;;;;483841;246;28190;-71
2021/08/21 02:21:48;;;;;;;2.97;2.73;;;13.30;99.90;;;;;;483860;246;28209;-70
2021/08/21 02:23:51;;;;;;;2.73;2.53;;;;;;;;;;483878;246;28316;-70
2021/08/21 02:25:56;;;;;;;2.10;2.00;;;13.20;99.90;;;;;;483845;246;26616;-70
2021/08/21 02:27:59;;;;;;;2.33;2.20;;;13.30;99.90;;;;;;483586;246;28405;-70
2021/08/21 02:29:57;;;;;;;2.83;2.60;;;13.30;99.90;;;;;;483623;246;28275;-70
2021/08/21 02:31:59;;;;;;;3.10;2.20;;;13.30;99.90;;;;;;483880;246;28481;-70
2021/08/21 02:34:00;;;;;;;2.40;2.20;;;13.30;99.90;;;;;;483849;246;28672;-70
2021/08/21 02:36:01;;;;;;;2.20;2.10;;;13.30;99.90;;;;;;483855;246;28494;-70
2021/08/21 02:38:02;;;;;;;2.47;2.27;;;13.30;99.90;;;;;;483832;246;28654;-71
2021/08/21 02:40:03;;;;;;;2.30;2.20;;;13.20;99.90;;;;;;483858;246;29981;-70
2021/08/21 02:42:05;;;;;;;2.30;2.20;;;13.30;99.90;;;;;;483878;246;28245;-70
2021/08/21 02:44:06;;;;;;;2.40;2.20;;;13.20;99.90;;;;;;483846;246;28183;-71
2021/08/21 02:46:07;;;;;;;2.40;2.30;;;13.20;99.90;;;;;;483857;246;28051;-71
2021/08/21 02:48:10;;;;;;;2.63;2.43;;;;;;;;;;483826;246;28229;-69
2021/08/21 02:50:11;;;;;;;2.33;2.23;;;13.10;99.90;;;;;;483862;246;27293;-71
2021/08/21 02:52:12;;;;;;;2.67;2.47;;;13.10;99.90;;;;;;483874;246;28702;-71
2021/08/21 02:54:13;;;;;;;2.50;2.30;;;13.10;99.90;;;;;;483857;246;28214;-70
2021/08/21 02:56:15;;;;;;;2.50;2.30;;;13.10;99.90;;;;;;483840;246;28209;-70
2021/08/21 02:58:16;;;;;;;2.77;2.23;;;13.00;99.90;;;;;;483867;246;28695;-71
2021/08/21 03:00:17;;;;;;;3.03;2.83;;;13.00;99.90;;;;;;483891;246;28258;-70
2021/08/21 03:02:18;;;;;;;2.37;2.17;;;13.00;99.90;;;;;;483774;246;28822;-70
2021/08/21 03:04:20;;;;;;;2.30;2.20;;;13.00;99.90;;;;;;483830;246;28767;-70
2021/08/21 03:06:21;;;;;;;2.43;2.33;;;13.00;99.90;;;;;;483800;246;28295;-70
2021/08/21 03:08:22;;;;;;;2.60;2.40;;;13.00;99.90;;;;;;483840;246;30342;-70
2021/08/21 03:10:23;;;;;;;2.63;2.43;;;13.00;99.90;;;;;;483852;246;28583;-70
2021/08/21 03:12:29;;;;;;;2.70;2.50;;;;;;;;;;483832;246;28550;-70
2021/08/21 03:14:27;;;;;;;2.67;2.47;;;13.00;99.90;;;;;;483693;246;26976;-70
2021/08/21 03:16:28;;;;;;;2.50;2.30;;;13.10;99.90;;;;;;483870;246;28439;-70
2021/08/21 03:18:30;;;;;;;3.00;2.57;;;13.10;99.90;;;;;;483852;246;28699;-70
2021/08/21 03:20:31;;;;;;;2.80;2.60;;;13.10;99.90;;;;;;483858;246;28988;-70
2021/08/21 03:22:32;;;;;;;2.83;2.60;;;13.10;99.90;;;;;;483844;246;28515;-70
2021/08/21 03:24:33;;;;;;;2.90;2.67;;;13.10;99.90;;;;;;483845;246;29449;-70
2021/08/21 03:26:35;;;;;;;2.80;2.60;;;13.10;99.90;;;;;;483857;246;28743;-70
2021/08/21 03:28:36;;;;;;;2.77;2.57;;;13.10;99.90;;;;;;483865;246;28743;-70
2021/08/21 03:30:38;;;;;;;2.60;2.40;;;;;;;;;;483834;246;28230;-70
2021/08/21 03:32:40;;;;;;;3.20;2.90;;;13.10;99.90;;;;;;483835;246;27558;-70
2021/08/21 03:34:41;;;;;;;2.80;2.23;;;13.10;99.90;;;;;;483843;246;28868;-70
2021/08/21 03:36:42;;;;;;;2.60;2.40;;;13.10;99.90;;;;;;483880;246;28728;-70
2021/08/21 03:38:44;;;;;;;2.87;2.67;;;13.20;99.90;;;;;;483875;246;28990;-70
2021/08/21 03:40:45;;;;;;;2.43;2.23;;;13.20;99.90;;;;;;483806;246;28399;-70
2021/08/21 03:42:46;;;;;;;2.67;2.47;;;13.20;99.90;;;;;;483801;246;28182;-69
2021/08/21 03:44:47;;;;;;;2.90;2.40;;;13.20;99.90;;;;;;483852;246;28164;-70
2021/08/21 03:46:48;;;;;;;3.10;2.67;;;13.20;99.90;;;;;;483806;246;28146;-70
2021/08/21 03:48:50;;;;;;;2.47;2.27;;;13.20;99.90;;;;;;483904;246;28762;-70
2021/08/21 03:50:51;;;;;;;2.90;2.63;;;13.20;99.90;;;;;;483866;246;28205;-70
2021/08/21 03:52:52;;;;;;;2.50;2.30;;;13.20;99.90;;;;;;483847;246;28067;-70
2021/08/21 03:54:54;;;;;;;2.20;2.10;;;13.20;99.90;;;;;;483883;246;29134;-70
2021/08/21 03:56:55;;;;;;;3.77;2.70;;;13.10;99.90;;;;;;483835;246;28565;-70
2021/08/21 03:58:56;;;;;;;2.70;2.50;;;13.20;99.90;;;;;;483891;246;28596;-70
2021/08/21 04:00:57;;;;;;;2.93;2.50;;;13.10;99.90;;;;;;483853;246;29163;-70
2021/08/21 04:02:58;;;;;;;2.83;2.63;;;13.10;99.90;;;;;;483831;246;28065;-70
2021/08/21 04:05:00;;;;;;;2.87;2.53;;;13.10;99.90;;;;;;483846;246;28368;-70
2021/08/21 04:07:01;;;;;;;2.80;2.60;;;13.10;99.90;;;;;;483870;246;28051;-70
2021/08/21 04:09:02;;;;;;;2.60;2.40;;;13.20;99.90;;;;;;483868;246;28066;-69
2021/08/21 04:11:03;;;;;;;3.70;2.50;;;13.20;99.90;;;;;;483843;246;28117;-70
2021/08/21 04:13:05;;;;;;;2.70;2.50;;;13.20;99.90;;;;;;483861;246;28130;-73
2021/08/21 04:15:06;;;;;;;3.03;2.70;;;13.10;99.90;;;;;;483851;246;28086;-69
2021/08/21 04:17:07;;;;;;;2.63;2.43;;;13.10;99.90;;;;;;483847;246;28190;-70
2021/08/21 04:19:08;;;;;;;2.70;2.50;;;13.10;99.90;;;;;;483848;246;28088;-70
2021/08/21 04:21:10;;;;;;;2.60;2.40;;;13.10;99.90;;;;;;483853;246;28786;-70
2021/08/21 04:23:11;;;;;;;2.60;2.40;;;13.10;99.90;;;;;;483865;246;28754;-70
2021/08/21 04:25:12;;;;;;;3.20;2.30;;;13.10;99.90;;;;;;483863;246;30486;-70
2021/08/21 04:27:15;;;;;;;5.00;2.53;;;;;;;;;;483888;246;28435;-70
2021/08/21 04:29:16;;;;;;;3.20;3.00;;;13.00;99.90;;;;;;483788;246;26570;-70
2021/08/21 04:31:17;;;;;;;2.80;2.60;;;13.00;99.90;;;;;;483841;246;28204;-71
2021/08/21 04:33:18;;;;;;;2.70;2.50;;;13.00;99.90;;;;;;483870;246;29335;-70
2021/08/21 04:35:19;;;;;;;2.53;2.37;;;13.00;99.90;;;;;;483889;246;28775;-70
2021/08/21 04:37:21;;;;;;;2.80;2.60;;;13.00;99.90;;;;;;483871;246;28569;-70
2021/08/21 04:39:22;;;;;;;2.53;2.33;;;13.00;99.90;;;;;;483873;246;28690;-70
2021/08/21 04:41:23;;;;;;;2.60;2.40;;;13.00;99.90;;;;;;483847;246;28547;-70
2021/08/21 04:43:25;;;;;;;2.97;2.70;;;13.00;99.90;;;;;;483870;246;28190;-70
2021/08/21 04:45:26;;;;;;;3.27;3.07;;;13.10;99.90;;;;;;483876;246;28084;-70
2021/08/21 04:47:27;;;;;;;2.40;2.30;;;13.10;99.90;;;;;;483872;246;28425;-70
2021/08/21 04:49:28;;;;;;;3.20;2.90;;;13.10;99.90;;;;;;483873;246;28695;-70
2021/08/21 04:51:30;;;;;;;3.80;3.33;;;13.10;99.90;;;;;;483868;246;28914;-70
2021/08/21 04:53:31;;;;;;;2.83;2.63;;;13.20;99.90;;;;;;483852;246;28780;-70
2021/08/21 04:55:33;;;;;;;3.33;3.03;;;;;;;;;;483890;246;29010;-70
2021/08/21 04:57:34;;;;;;;3.60;3.20;;;13.10;99.90;;;;;;483865;246;26540;-70
2021/08/21 04:59:36;;;;;;;3.00;2.70;;;13.10;99.90;;;;;;483848;246;28424;-70
2021/08/21 05:01:37;;;;;;;2.90;2.60;;;13.10;99.90;;;;;;483859;246;28695;-70
2021/08/21 05:03:38;;;;;;;4.00;2.87;;;13.00;99.90;;;;;;483892;246;28292;-70
2021/08/21 05:05:39;;;;;;;2.67;2.50;;;13.00;99.90;;;;;;483901;246;28225;-70
2021/08/21 05:07:41;;;;;;;3.10;2.90;;;13.10;99.90;;;;;;483881;246;28892;-70
2021/08/21 05:09:42;;;;;;;2.80;2.60;;;13.10;99.90;;;;;;483893;246;28587;-71
2021/08/21 05:11:43;;;;;;;2.97;2.77;;;13.10;99.90;;;;;;483718;246;28657;-70
2021/08/21 05:13:44;;;;;;;2.90;2.70;;;13.00;99.90;;;;;;483874;246;28507;-70
2021/08/21 05:15:46;;;;;;;2.43;2.30;;;12.90;99.90;;;;;;483871;246;28550;-70
2021/08/21 05:17:49;;;;;;;3.30;3.00;;;12.80;99.90;;;;;;483880;246;28157;-70
2021/08/21 05:19:51;;;;;;;2.80;2.60;;;12.80;99.90;;;;;;483710;246;28301;-70
2021/08/21 05:21:52;;;;;;;3.60;3.30;;;12.80;99.90;;;;;;483704;246;28083;-71
2021/08/21 05:23:51;;;;;;;2.80;2.60;;;12.80;99.90;;;;;;483726;246;28388;-70
2021/08/21 05:25:52;;;;;;;2.60;2.40;;;12.90;99.90;;;;;;483870;246;27982;-70
2021/08/21 05:27:53;;;;;;;2.90;2.70;;;12.90;99.90;;;;;;483849;246;28687;-70
2021/08/21 05:29:54;;;;;;;3.33;3.10;;;13.00;99.90;;;;;;483830;246;28719;-70
2021/08/21 05:31:56;;;;;;;2.97;2.77;;;13.00;99.90;;;;;;483843;246;29023;-70
2021/08/21 05:33:58;;;;;;;3.47;3.20;;;;;;;;;;483884;246;28724;-70
2021/08/21 05:35:59;;;;;;;3.23;2.90;;;13.20;99.90;;;;;;483887;246;26500;-70
2021/08/21 05:38:01;;;;;;;3.40;3.10;;;13.30;99.90;;;;;;483893;246;27978;-71
2021/08/21 05:40:02;;;;;;;3.10;2.90;;;13.30;99.90;;;;;;483872;246;28203;-70
2021/08/21 05:42:03;;;;;;;3.20;2.90;;;13.40;99.90;;;;;;483880;246;28190;-70
2021/08/21 05:44:04;;;;;;;2.97;2.77;;;13.40;99.90;;;;;;483855;246;28658;-71
2021/08/21 05:46:06;;;;;;;3.73;3.43;;;13.40;99.90;;;;;;483881;246;28753;-70
2021/08/21 05:48:07;;;;;;;3.70;3.40;;;13.40;99.90;;;;;;483864;246;28592;-70
2021/08/21 05:50:08;;;;;;;2.83;2.63;;;13.40;99.90;;;;;;483863;246;29769;-70
2021/08/21 05:52:09;;;;;;;3.10;2.90;;;13.40;99.90;;;;;;483896;246;28165;-71
2021/08/21 05:54:11;;;;;;;3.20;2.90;;;13.50;99.90;;;;;;483870;246;28273;-70
2021/08/21 05:56:12;;;;;;;3.53;3.23;;;13.50;99.90;;;;;;483844;246;28268;-70
2021/08/21 05:58:13;;;;;;;2.70;2.50;;;13.50;99.90;;;;;;483850;246;28099;-70
2021/08/21 06:00:14;;;;;;;3.03;2.83;;;13.50;99.90;;;;;;483852;246;28096;-70
2021/08/21 06:02:16;;;;;;;4.10;2.97;;;13.50;99.90;;;;;;483879;246;28269;-70
2021/08/21 06:04:17;;;;;;;3.20;3.00;;;13.60;99.90;;;;;;483832;246;28152;-70
2021/08/21 06:06:23;;;;;;;2.67;2.47;;;13.50;99.90;;;;;;483855;246;28067;-70
2021/08/21 06:08:22;;;;;;;2.87;2.67;;;13.50;99.90;;;;;;483719;246;29427;-70
2021/08/21 06:10:24;;;;;;;2.87;2.60;;;13.60;99.90;;;;;;483889;246;28070;-70
2021/08/21 06:12:25;;;;;;;3.10;2.90;;;13.50;99.90;;;;;;483867;246;28523;-70
2021/08/21 06:14:26;;;;;;;3.00;2.80;;;13.50;99.90;;;;;;483831;246;28276;-69
2021/08/21 06:16:27;;;;;;;3.37;3.07;;;13.50;99.90;;;;;;483847;246;28252;-70
2021/08/21 06:18:29;;;;;;;2.80;2.60;;;13.60;99.90;;;;;;483834;246;28166;-69
2021/08/21 06:20:30;;;;;;;2.80;2.60;;;13.70;99.90;;;;;;483864;246;28202;-70
2021/08/21 06:22:31;;;;;;;3.33;3.10;;;13.70;99.90;;;;;;483868;246;28303;-71
2021/08/21 06:24:32;;;;;;;3.10;2.90;;;13.70;99.90;;;;;;483856;246;28253;-69
2021/08/21 06:26:34;;;;;;;2.97;2.67;;;13.80;99.90;;;;;;483827;246;28438;-71
2021/08/21 06:28:35;;;;;;;3.13;2.90;;;13.80;99.90;;;;;;483856;246;29259;-71
2021/08/21 06:30:36;;;;;;;4.60;2.97;;;13.90;99.90;;;;;;483878;246;28752;-71
2021/08/21 06:32:37;;;;;;;2.90;2.70;;;14.00;99.90;;;;;;483846;246;28786;-71
2021/08/21 06:34:39;;;;;;;3.67;2.93;;;14.00;99.90;;;;;;483822;246;28157;-72
2021/08/21 06:36:40;;;;;;;2.90;2.70;;;14.10;99.90;;;;;;483840;246;28318;-71
2021/08/21 06:38:41;;;;;;;3.23;2.67;;;14.20;99.90;;;;;;483863;246;28291;-71
2021/08/21 06:40:43;;;;;;;2.87;2.67;;;14.20;99.90;;;;;;483857;246;28251;-71
2021/08/21 06:42:45;;;;;;;2.27;2.17;;;;;;;;;;483824;246;28135;-71
2021/08/21 06:44:47;;;;;;;2.77;2.57;;;;;;;;;;483866;246;26266;-71
2021/08/21 06:46:49;;;;;;;2.80;2.60;;;14.50;99.90;;;;;;483843;246;27366;-70
2021/08/21 06:48:50;;;;;;;2.70;2.50;;;14.60;99.90;;;;;;483873;246;28337;-71
2021/08/21 06:50:51;;;;;;;2.83;2.63;;;14.60;99.90;;;;;;483824;246;28331;-71
2021/08/21 06:52:52;;;;;;;4.10;2.77;;;14.70;99.90;;;;;;483810;246;28790;-71
2021/08/21 06:54:54;;;;;;;2.90;2.70;;;14.70;99.90;;;;;;483852;246;28316;-71
2021/08/21 06:56:55;;;;;;;3.07;2.80;;;14.80;99.90;;;;;;483821;246;28363;-71
2021/08/21 06:58:56;;;;;;;3.00;2.80;;;14.90;99.90;;;;;;483850;246;28457;-71
2021/08/21 07:00:57;;;;;;;2.60;2.50;;;15.00;99.90;;;;;;483845;246;28685;-71
2021/08/21 07:02:59;;;;;;;2.57;2.37;;;15.10;99.90;;;;;;483816;246;29163;-71
2021/08/21 07:05:00;;;;;;;2.67;2.47;;;15.20;99.90;;;;;;483862;246;29188;-70
2021/08/21 07:07:02;;;;;;;2.83;2.60;;;15.30;99.90;;;;;;483877;246;28899;-71
2021/08/21 07:09:02;;;;;;;2.40;2.30;;;15.30;99.90;;;;;;483818;246;28833;-71
2021/08/21 07:11:04;;;;;;;2.77;2.57;;;15.50;99.90;;;;;;483846;246;28794;-69
2021/08/21 07:13:05;;;;;;;3.00;2.80;;;15.60;99.90;;;;;;483829;246;28810;-68
2021/08/21 07:15:07;;;;;;;2.70;2.50;;;15.70;99.90;;;;;;483873;246;28404;-72
2021/08/21 07:17:11;;;;;;;2.70;2.50;;;15.70;99.90;;;;;;483807;246;28691;-71
2021/08/21 07:19:09;;;;;;;2.40;2.30;;;15.80;99.90;;;;;;483434;246;28733;-69
2021/08/21 07:21:10;;;;;;;3.10;2.53;;;15.90;99.90;;;;;;483863;246;28700;-71
2021/08/21 07:23:11;;;;;;;2.50;2.37;;;15.90;99.90;;;;;;483862;246;28786;-72
2021/08/21 07:25:12;;;;;;;3.00;2.80;;;16.00;99.90;;;;;;483872;246;28769;-69
2021/08/21 07:27:14;;;;;;;2.97;2.77;;;16.10;99.90;;;;;;483836;246;29154;-69
2021/08/21 07:29:15;;;;;;;2.93;2.73;;;16.30;99.90;;;;;;483840;246;29221;-69
2021/08/21 07:31:16;;;;;;;3.40;3.20;;;16.40;99.90;;;;;;483851;246;29248;-69
2021/08/21 07:33:17;;;;;;;6.77;3.87;;;16.50;99.90;;;;;;483827;246;28716;-70
2021/08/21 07:35:19;;;;;;;5.10;4.30;;;16.90;99.90;;;;;;483818;246;28731;-70
2021/08/21 07:37:21;;;;;;;3.63;3.30;;;17.10;99.90;;;;;;483812;246;28685;-69
2021/08/21 07:39:21;;;;;;;4.30;3.90;;;17.30;99.90;;;;;;483755;246;28712;-69
2021/08/21 07:41:22;;;;;;;4.93;3.27;;;17.50;99.90;;;;;;483811;246;28684;-72
2021/08/21 07:43:24;;;;;;;3.30;3.10;;;17.50;99.90;;;;;;483848;246;28775;-70
2021/08/21 07:45:26;;;;;;;3.27;2.90;;;17.60;99.90;;;;;;483884;246;28731;-71
2021/08/21 07:47:27;;;;;;;3.03;2.83;;;17.70;99.90;;;;;;483873;246;28735;-71
2021/08/21 07:49:29;;;;;;;5.20;3.10;;;17.60;99.90;;;;;;483844;246;28785;-71
2021/08/21 07:51:30;;;;;;;6.27;3.30;;;17.80;99.90;;;;;;483792;246;29239;-71
2021/08/21 07:53:31;;;;;;;3.03;2.83;;;17.90;99.90;;;;;;483768;246;29237;-71
2021/08/21 07:55:32;;;;;;;3.60;3.20;;;17.90;99.90;;;;;;483765;246;29264;-71
2021/08/21 07:57:34;;;;;;;3.73;3.20;;;18.00;99.90;;;;;;483752;246;28831;-71
2021/08/21 07:59:35;;;;;;;4.27;3.13;;;18.20;99.90;;;;;;483771;246;28791;-71
2021/08/21 08:01:36;;;;;;;3.27;2.70;;;18.50;99.90;;;;;;483847;246;28748;-71
2021/08/21 08:03:37;;;;;;;3.97;3.50;;;18.40;99.90;;;;;;483802;246;28735;-71
2021/08/21 08:05:39;;;;;;;3.33;3.10;;;18.50;99.90;;;;;;483810;246;28799;-69
2021/08/21 08:07:40;;;;;;;3.23;2.93;;;18.50;99.90;;;;;;483802;246;28744;-72
2021/08/21 08:09:41;;;;;;;3.40;2.77;;;18.50;99.90;;;;;;483859;246;28826;-69
2021/08/21 08:11:42;;;;;;;3.83;3.53;;;18.70;99.90;;;;;;483825;246;30802;-72
2021/08/21 08:13:44;;;;;;;4.40;3.13;;;18.90;99.90;;;;;;483839;246;28732;-70
2021/08/21 08:15:45;;;;;;;3.73;3.17;;;18.90;99.90;;;;;;483836;246;29215;-69
2021/08/21 08:17:46;;;;;;;4.20;3.90;;;19.10;99.90;;;;;;483825;246;29199;-71
2021/08/21 08:19:47;;;;;;;4.53;3.67;;;19.20;99.90;;;;;;483878;246;29270;-71
2021/08/21 08:21:49;;;;;;;5.40;3.20;;;19.20;99.90;;;;;;483865;246;29248;-72
2021/08/21 08:23:51;;;;;;;3.10;2.90;;;19.20;99.90;;;;;;483827;246;28786;-71
2021/08/21 08:25:51;;;;;;;5.47;3.27;;;19.20;99.90;;;;;;483765;246;28692;-72
2021/08/21 08:27:52;;;;;;;3.40;3.10;;;19.30;99.90;;;;;;483844;246;28735;-71
2021/08/21 08:29:54;;;;;;;3.73;3.43;;;19.30;99.90;;;;;;483860;246;29167;-70
2021/08/21 08:31:55;;;;;;;3.90;3.50;;;19.30;99.90;;;;;;483850;246;28817;-71
2021/08/21 08:33:56;;;;;;;5.33;3.00;;;19.30;99.90;;;;;;483813;246;28724;-72
2021/08/21 08:35:57;;;;;;;3.27;3.00;;;19.50;99.90;;;;;;483837;246;28771;-70
2021/08/21 08:37:59;;;;;;;3.30;3.10;;;19.50;99.90;;;;;;483824;246;28739;-72
2021/08/21 08:40:00;;;;;;;4.83;3.30;;;19.50;99.90;;;;;;483825;246;29279;-72
2021/08/21 08:42:01;;;;;;;3.50;3.20;;;19.70;99.90;;;;;;483838;246;29140;-71
2021/08/21 08:44:02;;;;;;;3.30;3.00;;;19.70;99.90;;;;;;483831;246;29207;-72
2021/08/21 08:46:04;;;;;;;5.93;3.20;;;19.70;99.90;;;;;;483836;246;29229;-72
2021/08/21 08:48:05;;;;;;;3.20;3.00;;;19.80;99.90;;;;;;483839;246;28752;-71
2021/08/21 08:50:06;;;;;;;4.90;3.00;;;19.80;99.90;;;;;;483860;246;28711;-71
2021/08/21 08:52:08;;;;;;;4.73;3.37;;;19.90;99.90;;;;;;483842;246;28673;-71
2021/08/21 08:54:09;;;;;;;4.53;3.00;;;20.00;99.90;;;;;;483838;246;28792;-71
2021/08/21 08:56:10;;;;;;;2.90;2.70;;;20.00;99.90;;;;;;483838;246;28703;-71
2021/08/21 08:58:11;;;;;;;3.87;2.93;;;20.00;99.90;;;;;;483830;246;28713;-71
2021/08/21 09:00:12;;;;;;;3.43;3.03;;;20.00;99.90;;;;;;483841;246;28851;-72
2021/08/21 09:02:14;;;;;;;4.13;3.40;;;20.10;99.90;;;;;;483843;246;28774;-71
2021/08/21 09:04:15;;;;;;;3.67;3.37;;;20.30;99.90;;;;;;483850;246;29278;-72
2021/08/21 09:06:16;;;;;;;4.37;3.37;;;20.30;99.90;;;;;;483851;246;29223;-71
2021/08/21 09:08:18;;;;;;;3.23;2.67;;;;;;;;;;483861;246;29228;-71
2021/08/21 09:10:22;;;;;;;3.53;3.23;;;;;;;;;;483866;246;27390;-72
2021/08/21 09:12:24;;;;;;;3.77;3.47;;;;;;;;;;483857;246;27881;-71
2021/08/21 09:14:28;;;;;;;3.57;3.27;;;;;;;;;;483350;246;27639;-71
2021/08/21 09:16:28;;;;;;;3.43;3.13;;;;;;;;;;483679;246;28005;-71
2021/08/21 09:18:30;;;;;;;3.63;3.33;;;;;;;;;;483883;246;27425;-71
2021/08/21 09:20:32;;;;;;;3.00;2.80;;;;;;;;;;483881;246;27985;-71
2021/08/21 09:22:34;;;;;;;3.10;2.90;;;;;;;;;;483904;246;27413;-71
2021/08/21 09:24:40;;;;;;;3.40;3.10;;;;;;;;;;483849;246;27409;-71
2021/08/21 09:26:42;;;;;;;3.03;2.83;;;;;;;;;;483876;246;27829;-71
2021/08/21 09:28:44;;;;;;;2.83;2.60;;;;;;;;;;483865;246;27478;-71
2021/08/21 09:30:46;;;;;;;3.77;3.40;;;;;;;;;;483887;246;27533;-71
2021/08/21 09:32:48;;;;;;;3.07;2.77;;;;;;;;;;483908;246;27739;-71
2021/08/21 09:34:50;;;;;;;3.10;2.90;;;;;;;;;;483877;246;27481;-71
2021/08/21 09:36:52;;;;;;;2.80;2.60;;;;;;;;;;483903;246;27485;-71
2021/08/21 09:38:54;;;;;;;3.67;3.37;;;;;;;;;;483891;246;27421;-71
2021/08/21 09:40:56;;;;;;;3.10;2.80;;;;;;;;;;483868;246;27512;-71
2021/08/21 09:42:59;;;;;;;3.00;2.70;;;;;;;;;;483869;246;27413;-71
2021/08/21 09:45:01;;;;;;;2.90;2.60;;;;;;;;;;483880;246;27439;-71
2021/08/21 09:47:03;;;;;;;3.50;3.20;;;;;;;;;;483896;246;27405;-71
2021/08/21 09:49:05;;;;;;;3.17;2.87;;;;;;;;;;483891;246;27414;-71
2021/08/21 09:51:07;;;;;;;2.90;2.70;;;;;;;;;;483910;246;27523;-71
2021/08/21 09:53:09;;;;;;;2.70;2.50;;;;;;;;;;483858;246;27491;-71
2021/08/21 09:55:15;;;;;;;3.10;2.80;;;;;;;;;;483889;246;27407;-71
2021/08/21 09:57:13;;;;;;;2.73;2.53;;;;;;;;;;483627;246;27413;-71
2021/08/21 09:59:16;;;;;;;2.53;2.33;;;;;;;;;;483760;246;27469;-72
2021/08/21 10:01:18;;;;;;;2.97;2.77;;;;;;;;;;483783;246;27497;-72
2021/08/21 10:03:20;;;;;;;3.40;3.10;;;;;;;;;;483878;246;27343;-71
2021/08/21 10:05:22;;;;;;;4.83;3.20;;;;;;;;;;483870;246;27396;-72
2021/08/21 10:07:27;;;;;;;3.37;2.70;;;;;;;;;;483856;246;27396;-72
2021/08/21 10:09:28;;;;;;;3.60;3.30;;;;;;;;;;483618;246;27472;-72
2021/08/21 10:11:29;;;;;;;3.23;2.80;;;;;;;;;;483756;246;27398;-72
2021/08/21 10:13:30;;;;;;;3.80;3.17;;;;;;;;;;483834;246;27374;-71
2021/08/21 10:15:32;;;;;;;3.10;2.87;;;;;;;;;;483875;246;27362;-72
2021/08/21 10:17:34;;;;;;;2.83;2.63;;;;;;;;;;483847;246;27451;-71
2021/08/21 10:19:37;;;;;;;2.80;2.60;;;;;;;;;;483857;246;27457;-71
2021/08/21 10:21:39;;;;;;;2.80;2.60;;;;;;;;;;483846;246;27425;-71
2021/08/21 10:23:41;;;;;;;3.00;2.80;;;;;;;;;;483856;246;27431;-71
2021/08/21 10:25:42;;;;;;;3.20;2.80;;;22.00;99.90;;;;;;483856;246;27421;-71
2021/08/21 10:27:43;;;;;;;3.10;2.90;;;22.00;99.90;;;;;;483851;246;28791;-71
2021/08/21 10:29:44;;;;;;;2.83;2.63;;;21.90;99.90;;;;;;483871;246;28719;-71
2021/08/21 10:31:49;;;;;;;2.73;2.53;;;21.80;99.90;;;;;;483895;246;29173;-71
2021/08/21 10:33:47;;;;;;;2.60;2.40;;;21.70;99.90;;;;;;483445;246;29324;-71
2021/08/21 10:35:48;;;;;;;3.13;2.83;;;21.70;99.90;;;;;;483865;246;30045;-71
2021/08/21 10:37:50;;;;;;;3.23;3.03;;;21.60;99.90;;;;;;483874;246;28761;-71
2021/08/21 10:39:51;;;;;;;2.90;2.70;;;21.60;99.90;;;;;;483867;246;28723;-71
2021/08/21 10:41:52;;;;;;;3.13;2.83;;;21.60;99.90;;;;;;483857;246;28873;-71
2021/08/21 10:43:53;;;;;;;3.10;2.80;;;21.60;99.90;;;;;;483835;246;28802;-71